createdAt,value
2023-04-02T00:01:26.852Z,25.58
2023-04-02T00:04:22.601Z,27.17
2023-04-02T00:06:57.939Z,25.80
2023-04-02T00:09:37.906Z,27.48
2023-04-02T00:12:20.149Z,34.42
2023-04-02T00:14:58.263Z,32.05
2023-04-02T00:17:29.138Z,29.23
2023-04-02T00:20:06.475Z,35.42
2023-04-02T00:22:44.684Z,34.92
2023-04-02T00:25:16.894Z,32.90
2023-04-02T00:27:47.709Z,26.27
2023-04-02T00:30:19.791Z,32.33
2023-04-02T00:32:50.895Z,30.35
2023-04-02T00:35:28.465Z,25.83
2023-04-02T00:37:59.406Z,27.77
2023-04-02T00:40:32.471Z,26.20
2023-04-02T00:43:04.461Z,24.15
2023-04-02T00:45:39.999Z,24.95
2023-04-02T00:48:29.310Z,22.23
2023-04-02T00:51:02.678Z,23.73
2023-04-02T00:53:33.914Z,26.23
2023-04-02T00:56:13.257Z,26.75
2023-04-02T00:58:45.972Z,27.17
2023-04-02T01:01:25.759Z,28.50
2023-04-02T01:03:59.429Z,25.23
2023-04-02T01:06:34.369Z,22.63
2023-04-02T01:09:26.954Z,20.38
2023-04-02T01:12:45.998Z,20.92
2023-04-02T01:15:22.828Z,18.50
2023-04-02T01:18:19.722Z,21.27
2023-04-02T01:21:12.627Z,13.95
2023-04-02T01:23:59.469Z,19.80
2023-04-02T01:26:57.864Z,20.08
2023-04-02T01:29:34.364Z,21.02
2023-04-02T01:32:08.360Z,20.55
2023-04-02T01:34:40.315Z,21.05
2023-04-02T01:37:32.478Z,19.52
2023-04-02T01:40:30.632Z,19.00
2023-04-02T01:43:15.377Z,22.13
2023-04-02T01:45:47.820Z,17.73
2023-04-02T01:48:22.554Z,14.90
2023-04-02T01:50:57.427Z,12.65
2023-04-02T01:53:32.278Z,17.85
2023-04-02T01:58:35.842Z,18.15
2023-04-02T02:01:15.572Z,17.53
2023-04-02T02:03:47.578Z,17.98
2023-04-02T02:06:20.511Z,19.08
2023-04-02T02:08:54.859Z,19.43
2023-04-02T02:11:29.912Z,17.70
2023-04-02T02:14:02.566Z,15.52
2023-04-02T02:16:42.076Z,17.92
2023-04-02T02:19:25.773Z,16.33
2023-04-02T02:22:02.346Z,18.63
2023-04-02T02:24:36.261Z,17.75
2023-04-02T02:27:48.265Z,15.60
2023-04-02T02:30:24.325Z,15.77
2023-04-02T02:33:03.536Z,16.60
2023-04-02T02:35:44.563Z,13.75
2023-04-02T02:38:45.944Z,15.70
2023-04-02T02:41:32.858Z,16.58
2023-04-02T02:44:17.269Z,12.10
2023-04-02T02:46:52.906Z,14.25
2023-04-02T02:49:29.663Z,10.35
2023-04-02T02:52:13.999Z,12.98
2023-04-02T02:54:58.869Z,13.38
2023-04-02T02:57:38.900Z,13.65
2023-04-02T03:00:16.784Z,13.43
2023-04-02T03:02:48.105Z,11.30
2023-04-02T03:07:59.588Z,12.80
2023-04-02T03:10:43.026Z,13.27
2023-04-02T03:13:24.271Z,12.32
2023-04-02T03:16:03.818Z,12.65
2023-04-02T03:18:45.399Z,13.07
2023-04-02T03:21:27.274Z,14.60
2023-04-02T03:24:03.517Z,13.48
2023-04-02T03:26:40.823Z,14.93
2023-04-02T03:29:19.080Z,13.32
2023-04-02T03:31:59.272Z,15.32
2023-04-02T03:34:37.476Z,14.45
2023-04-02T03:37:16.746Z,15.32
2023-04-02T03:39:53.665Z,16.42
2023-04-02T03:42:27.176Z,17.95
2023-04-02T03:45:08.939Z,19.35
2023-04-02T03:47:46.548Z,17.23
2023-04-02T03:50:23.264Z,18.40
2023-04-02T03:52:58.189Z,17.50
2023-04-02T03:55:32.220Z,13.00
2023-04-02T03:58:11.182Z,11.60
2023-04-02T04:00:50.112Z,13.50
2023-04-02T04:03:30.590Z,15.20
2023-04-02T04:06:06.792Z,14.85
2023-04-02T04:08:44.942Z,16.52
2023-04-02T04:11:20.124Z,15.52
2023-04-02T04:13:58.313Z,17.50
2023-04-02T04:16:34.597Z,13.85
2023-04-02T04:19:18.279Z,18.70
2023-04-02T04:21:49.344Z,20.63
2023-04-02T04:24:28.707Z,17.35
2023-04-02T04:27:10.584Z,21.60
2023-04-02T04:29:55.095Z,23.88
2023-04-02T04:32:32.364Z,24.40
2023-04-02T04:35:21.423Z,17.38
2023-04-02T04:37:58.888Z,20.27
2023-04-02T04:40:33.880Z,21.45
2023-04-02T04:43:11.017Z,22.35
2023-04-02T04:45:48.613Z,22.40
2023-04-02T04:48:28.587Z,21.83
2023-04-02T04:51:05.962Z,18.48
2023-04-02T04:53:48.713Z,19.63
2023-04-02T04:56:26.904Z,17.45
2023-04-02T04:59:08.188Z,20.25
2023-04-02T05:01:45.168Z,14.73
2023-04-02T05:04:23.707Z,18.58
2023-04-02T05:07:06.266Z,12.88
2023-04-02T05:09:42.826Z,14.32
2023-04-02T05:12:31.914Z,13.52
2023-04-02T05:15:13.062Z,15.70
2023-04-02T05:17:51.849Z,14.38
2023-04-02T05:20:28.788Z,13.95
2023-04-02T05:23:12.147Z,16.45
2023-04-02T05:25:55.863Z,14.90
2023-04-02T05:28:36.237Z,13.65
2023-04-02T05:31:12.491Z,14.95
2023-04-02T05:33:49.220Z,13.48
2023-04-02T05:36:26.470Z,14.85
2023-04-02T05:39:02.149Z,14.68
2023-04-02T05:41:46.310Z,14.48
2023-04-02T05:44:28.443Z,14.00
2023-04-02T05:47:06.144Z,11.60
2023-04-02T05:49:45.089Z,12.30
2023-04-02T05:52:21.202Z,11.68
2023-04-02T05:54:59.870Z,11.82
2023-04-02T05:57:43.808Z,11.48
2023-04-02T06:00:29.382Z,10.43
2023-04-02T06:03:07.658Z,10.40
2023-04-02T06:05:44.513Z,8.55
2023-04-02T06:08:24.229Z,8.43
2023-04-02T06:11:03.321Z,7.75
2023-04-02T06:13:34.021Z,7.05
2023-04-02T06:16:05.581Z,5.97
2023-04-02T06:18:38.306Z,6.32
2023-04-02T06:21:12.375Z,5.55
2023-04-02T06:23:49.628Z,4.50
2023-04-02T06:26:29.254Z,5.72
2023-04-02T06:29:08.273Z,4.25
2023-04-02T06:31:48.330Z,4.35
2023-04-02T06:34:23.955Z,4.55
2023-04-02T06:37:22.805Z,3.95
2023-04-02T06:40:00.355Z,3.45
2023-04-02T06:45:38.753Z,5.68
2023-04-02T06:48:40.916Z,6.40
2023-04-02T06:51:14.343Z,7.32
2023-04-02T06:53:48.121Z,7.22
2023-04-02T06:56:37.471Z,5.75
2023-04-02T06:59:12.854Z,6.13
2023-04-02T07:01:50.652Z,6.10
2023-04-02T07:04:23.160Z,5.72
2023-04-02T07:06:56.068Z,5.93
2023-04-02T07:09:29.589Z,5.22
2023-04-02T07:12:03.271Z,4.75
2023-04-02T07:14:35.670Z,5.00
2023-04-02T07:17:06.189Z,6.13
2023-04-02T07:19:36.875Z,5.95
2023-04-02T07:22:07.417Z,6.20
2023-04-02T07:24:42.847Z,4.43
2023-04-02T07:27:15.001Z,5.80
2023-04-02T07:29:48.035Z,5.60
2023-04-02T07:32:19.645Z,6.13
2023-04-02T07:34:50.950Z,4.43
2023-04-02T07:37:21.633Z,4.95
2023-04-02T07:39:52.711Z,5.45
2023-04-02T07:42:23.140Z,4.38
2023-04-02T07:44:55.559Z,6.65
2023-04-02T07:47:26.014Z,5.78
2023-04-02T07:49:56.915Z,4.82
2023-04-02T07:52:27.368Z,5.68
2023-04-02T07:54:58.151Z,4.47
2023-04-02T07:57:28.357Z,4.38
2023-04-02T08:00:00.625Z,4.07
2023-04-02T08:02:31.218Z,4.45
2023-04-02T08:05:02.756Z,7.07
2023-04-02T08:07:33.063Z,4.82
2023-04-02T08:10:04.596Z,4.35
2023-04-02T08:12:35.224Z,6.07
2023-04-02T08:15:09.550Z,5.45
2023-04-02T08:17:40.468Z,4.90
2023-04-02T08:20:18.224Z,4.30
2023-04-02T08:22:49.774Z,3.00
2023-04-02T08:25:20.790Z,2.90
2023-04-02T08:27:51.450Z,3.30
2023-04-02T08:30:23.834Z,3.15
2023-04-02T08:32:54.524Z,3.13
2023-04-02T08:35:25.385Z,4.50
2023-04-02T08:37:56.037Z,3.42
2023-04-02T08:40:32.554Z,3.65
2023-04-02T08:43:45.724Z,4.00
2023-04-02T08:46:27.970Z,5.72
2023-04-02T08:49:03.790Z,6.20
2023-04-02T08:51:37.867Z,4.53
2023-04-02T08:54:19.840Z,5.43
2023-04-02T08:56:57.155Z,8.32
2023-04-02T08:59:34.874Z,6.45
2023-04-02T09:02:28.336Z,4.82
2023-04-02T09:05:01.697Z,5.28
2023-04-02T09:07:33.744Z,4.88
2023-04-02T09:10:04.525Z,3.70
2023-04-02T09:12:35.695Z,3.97
2023-04-02T09:15:24.855Z,4.72
2023-04-02T09:18:07.901Z,4.88
2023-04-02T09:20:38.275Z,4.22
2023-04-02T09:23:17.792Z,4.75
2023-04-02T09:26:03.481Z,4.32
2023-04-02T09:28:35.879Z,5.20
2023-04-02T09:31:19.274Z,5.30
2023-04-02T09:33:54.884Z,6.97
2023-04-02T09:36:35.989Z,4.38
2023-04-02T09:39:17.831Z,3.28
2023-04-02T09:41:59.011Z,4.03
2023-04-02T09:44:36.618Z,4.35
2023-04-02T09:47:24.655Z,5.63
2023-04-02T09:50:14.244Z,3.75
2023-04-02T09:52:45.077Z,2.90
2023-04-02T09:55:24.350Z,3.45
2023-04-02T09:58:14.458Z,3.70
2023-04-02T10:00:53.848Z,4.88
2023-04-02T10:03:28.270Z,4.97
2023-04-02T10:06:14.617Z,4.78
2023-04-02T10:08:46.946Z,3.33
2023-04-02T10:11:25.373Z,3.70
2023-04-02T10:14:02.918Z,4.07
2023-04-02T10:16:38.485Z,3.83
2023-04-02T10:19:22.785Z,4.28
2023-04-02T10:21:57.113Z,4.93
2023-04-02T10:24:30.081Z,5.68
2023-04-02T10:27:18.076Z,4.25
2023-04-02T10:30:18.202Z,4.03
2023-04-02T10:32:57.144Z,3.42
2023-04-02T10:35:43.660Z,4.57
2023-04-02T10:38:38.853Z,3.88
2023-04-02T10:41:23.478Z,3.45
2023-04-02T10:44:29.749Z,3.53
2023-04-02T10:47:15.160Z,3.17
2023-04-02T10:49:54.293Z,3.63
2023-04-02T10:52:31.012Z,3.40
2023-04-02T10:55:08.845Z,4.60
2023-04-02T10:57:42.333Z,4.40
2023-04-02T11:00:26.168Z,3.20
2023-04-02T11:03:04.913Z,3.13
2023-04-02T11:05:44.202Z,3.53
2023-04-02T11:08:21.576Z,3.08
2023-04-02T11:11:01.398Z,3.85
2023-04-02T11:13:38.336Z,3.42
2023-04-02T11:16:09.485Z,3.42
2023-04-02T11:18:40.084Z,4.15
2023-04-02T11:21:54.825Z,3.63
2023-04-02T11:24:46.746Z,3.47
2023-04-02T11:27:26.070Z,3.88
2023-04-02T11:30:06.824Z,3.97
2023-04-02T11:32:42.828Z,3.15
2023-04-02T11:35:38.332Z,4.03
2023-04-02T11:38:53.019Z,3.70
2023-04-02T11:42:23.573Z,4.90
2023-04-02T11:44:56.476Z,5.20
2023-04-02T11:47:28.208Z,4.50
2023-04-02T11:50:05.233Z,3.97
2023-04-02T11:52:53.356Z,4.75
2023-04-02T11:55:32.875Z,5.30
2023-04-02T11:58:50.507Z,4.78
2023-04-02T12:01:51.129Z,3.20
2023-04-02T12:04:57.401Z,4.20
2023-04-02T12:08:05.931Z,4.25
2023-04-02T12:10:58.065Z,4.00
2023-04-02T12:13:58.680Z,3.63
2023-04-02T12:16:36.000Z,4.03
2023-04-02T12:19:10.996Z,4.18
2023-04-02T12:21:48.660Z,5.43
2023-04-02T12:24:24.886Z,3.50
2023-04-02T12:27:15.728Z,3.20
2023-04-02T12:29:47.178Z,3.78
2023-04-02T12:32:30.848Z,3.90
2023-04-02T12:35:08.386Z,3.90
2023-04-02T12:37:38.784Z,3.25
2023-04-02T12:40:20.185Z,4.53
2023-04-02T12:42:50.660Z,3.83
2023-04-02T12:45:29.107Z,4.82
2023-04-02T12:48:05.811Z,3.72
2023-04-02T12:50:37.397Z,3.67
2023-04-02T12:53:22.821Z,3.60
2023-04-02T12:55:55.390Z,4.93
2023-04-02T12:58:36.299Z,4.90
2023-04-02T13:01:20.128Z,4.10
2023-04-02T13:04:06.213Z,3.95
2023-04-02T13:06:38.012Z,5.78
2023-04-02T13:09:29.717Z,3.50
2023-04-02T13:12:00.785Z,4.18
2023-04-02T13:14:32.652Z,3.35
2023-04-02T13:17:03.626Z,3.45
2023-04-02T13:19:37.590Z,3.83
2023-04-02T13:22:38.442Z,3.75
2023-04-02T13:25:12.972Z,3.75
2023-04-02T13:27:44.068Z,3.72
2023-04-02T13:30:24.627Z,4.90
2023-04-02T13:32:56.549Z,4.40
2023-04-02T13:35:31.915Z,4.18
2023-04-02T13:38:07.423Z,4.00
2023-04-02T13:40:38.592Z,3.08
2023-04-02T13:43:17.144Z,3.80
2023-04-02T13:45:52.968Z,4.65
2023-04-02T13:48:26.362Z,4.22
2023-04-02T13:50:58.366Z,4.45
2023-04-02T13:53:33.548Z,3.63
2023-04-02T13:56:04.104Z,3.97
2023-04-02T13:58:35.148Z,4.10
2023-04-02T14:01:05.926Z,4.30
2023-04-02T14:03:36.799Z,2.97
2023-04-02T14:06:20.771Z,4.25
2023-04-02T14:09:04.223Z,3.50
2023-04-02T14:11:55.358Z,3.08
2023-04-02T14:14:52.465Z,4.30
2023-04-02T14:17:33.471Z,3.80
2023-04-02T14:20:32.105Z,3.35
2023-04-02T14:23:37.947Z,3.97
2023-04-02T14:26:19.147Z,4.32
2023-04-02T14:29:02.552Z,3.83
2023-04-02T14:31:38.161Z,4.65
2023-04-02T14:34:18.230Z,7.38
2023-04-02T14:37:02.128Z,4.35
2023-04-02T14:39:43.881Z,4.53
2023-04-02T14:42:19.444Z,4.60
2023-04-02T14:44:58.919Z,4.43
2023-04-02T14:47:37.735Z,4.95
2023-04-02T14:50:14.913Z,4.43
2023-04-02T14:52:52.917Z,4.72
2023-04-02T14:55:34.109Z,5.10
2023-04-02T14:58:11.438Z,4.50
2023-04-02T15:00:52.902Z,4.68
2023-04-02T15:03:31.132Z,4.82
2023-04-02T15:06:07.196Z,5.22
2023-04-02T15:08:58.537Z,5.55
2023-04-02T15:11:38.415Z,4.22
2023-04-02T15:14:19.310Z,5.93
2023-04-02T15:16:49.855Z,3.90
2023-04-02T15:19:21.554Z,5.10
2023-04-02T15:22:10.065Z,5.32
2023-04-02T15:24:52.445Z,5.10
2023-04-02T15:27:49.607Z,6.35
2023-04-02T15:30:26.312Z,8.65
2023-04-02T15:33:37.072Z,5.38
2023-04-02T15:36:49.794Z,5.13
2023-04-02T15:40:00.040Z,4.40
2023-04-02T15:42:39.439Z,5.00
2023-04-02T15:45:35.419Z,3.67
2023-04-02T15:48:44.101Z,3.90
2023-04-02T15:51:35.034Z,4.50
2023-04-02T15:54:23.344Z,3.38
2023-04-02T15:57:07.530Z,3.85
2023-04-02T16:00:21.455Z,3.92
2023-04-02T16:03:28.942Z,4.78
2023-04-02T16:06:24.184Z,4.45
2023-04-02T16:09:14.514Z,5.82
2023-04-02T16:11:48.458Z,4.75
2023-04-02T16:14:27.548Z,7.45
2023-04-02T16:17:17.583Z,5.35
2023-04-02T16:20:02.450Z,3.28
2023-04-02T16:22:35.605Z,4.55
2023-04-02T16:25:19.568Z,4.03
2023-04-02T16:27:57.056Z,4.35
2023-04-02T16:30:49.459Z,4.22
2023-04-02T16:33:55.591Z,3.80
2023-04-02T16:36:44.117Z,3.92
2023-04-02T16:39:29.318Z,4.93
2023-04-02T16:42:15.148Z,4.63
2023-04-02T16:45:04.492Z,5.43
2023-04-02T16:48:15.615Z,5.40
2023-04-02T16:51:00.730Z,5.00
2023-04-02T16:53:54.767Z,5.60
2023-04-02T16:56:44.443Z,4.80
2023-04-02T16:59:28.467Z,5.90
2023-04-02T17:02:14.346Z,4.57
2023-04-02T17:04:58.332Z,4.25
2023-04-02T17:07:36.670Z,6.22
2023-04-02T17:10:26.027Z,5.55
2023-04-02T17:13:13.162Z,5.38
2023-04-02T17:15:51.497Z,5.40
2023-04-02T17:18:26.598Z,4.85
2023-04-02T17:21:09.066Z,5.47
2023-04-02T17:26:38.835Z,5.88
2023-04-02T17:29:16.514Z,4.97
2023-04-02T17:31:48.580Z,5.38
2023-04-02T17:34:28.503Z,5.85
2023-04-02T17:37:16.588Z,5.82
2023-04-02T17:39:59.609Z,5.68
2023-04-02T17:42:49.795Z,6.20
2023-04-02T17:45:29.963Z,7.03
2023-04-02T17:48:04.437Z,6.18
2023-04-02T17:50:54.517Z,7.18
2023-04-02T17:53:41.317Z,16.58
2023-04-02T17:56:53.608Z,11.52
2023-04-02T17:59:40.347Z,8.05
2023-04-02T18:02:30.340Z,6.45
2023-04-02T18:05:17.602Z,6.30
2023-04-02T18:08:03.862Z,6.03
2023-04-02T18:10:45.877Z,6.22
2023-04-02T18:13:35.872Z,6.53
2023-04-02T18:16:32.136Z,7.50
2023-04-02T18:19:17.410Z,7.10
2023-04-02T18:21:59.125Z,9.65
2023-04-02T18:24:54.201Z,9.50
2023-04-02T18:27:44.311Z,8.70
2023-04-02T18:30:28.147Z,9.52
2023-04-02T18:33:25.706Z,10.18
2023-04-02T18:36:06.963Z,9.60
2023-04-02T18:38:45.661Z,9.68
2023-04-02T18:41:34.370Z,9.02
2023-04-02T18:44:21.185Z,8.70
2023-04-02T18:47:07.522Z,9.70
2023-04-02T18:49:42.679Z,8.80
2023-04-02T18:55:09.662Z,7.20
2023-04-02T18:57:44.151Z,6.72
2023-04-02T19:00:29.868Z,6.70
2023-04-02T19:03:11.161Z,8.27
2023-04-02T19:05:58.678Z,8.50
2023-04-02T19:08:35.525Z,10.30
2023-04-02T19:11:12.614Z,11.13
2023-04-02T19:13:45.837Z,10.98
2023-04-02T19:16:57.964Z,9.45
2023-04-02T19:19:39.501Z,10.90
2023-04-02T19:22:31.573Z,10.85
2023-04-02T19:25:31.673Z,10.13
2023-04-02T19:28:13.560Z,9.68
2023-04-02T19:31:03.037Z,10.82
2023-04-02T19:33:47.587Z,7.93
2023-04-02T19:36:41.666Z,7.43
2023-04-02T19:39:59.153Z,8.00
2023-04-02T19:42:45.251Z,11.15
2023-04-02T19:45:38.981Z,10.27
2023-04-02T19:48:17.509Z,7.35
2023-04-02T19:50:49.431Z,5.65
2023-04-02T19:53:22.094Z,4.95
2023-04-02T19:55:52.947Z,5.10
2023-04-02T19:58:29.540Z,5.07
2023-04-02T20:01:00.961Z,5.60
2023-04-02T20:03:32.696Z,3.97
2023-04-02T20:06:03.470Z,3.47
2023-04-02T20:08:38.680Z,3.78
2023-04-02T20:11:09.311Z,4.63
2023-04-02T20:13:40.200Z,4.82
2023-04-02T20:16:10.744Z,5.50
2023-04-02T20:18:41.701Z,5.18
2023-04-02T20:21:12.272Z,4.22
2023-04-02T20:23:44.833Z,4.95
2023-04-02T20:26:16.187Z,4.03
2023-04-02T20:28:47.165Z,2.10
2023-04-02T20:31:19.944Z,3.13
2023-04-02T20:33:50.970Z,2.92
2023-04-02T20:36:22.276Z,2.55
2023-04-02T20:38:54.984Z,5.38
2023-04-02T20:41:26.342Z,3.30
2023-04-02T20:43:57.631Z,3.47
2023-04-02T20:46:28.430Z,3.08
2023-04-02T20:48:59.440Z,4.10
2023-04-02T20:51:30.377Z,3.95
2023-04-02T20:54:03.228Z,2.97
2023-04-02T20:56:33.679Z,2.37
2023-04-02T20:59:04.889Z,2.47
2023-04-02T21:01:35.603Z,2.50
2023-04-02T21:04:06.927Z,2.55
2023-04-02T21:06:40.240Z,2.83
2023-04-02T21:09:18.745Z,3.47
2023-04-02T21:11:49.975Z,2.00
2023-04-02T21:14:21.120Z,2.33
2023-04-02T21:16:51.973Z,2.38
2023-04-02T21:19:22.681Z,2.65
2023-04-02T21:21:56.084Z,2.10
2023-04-02T21:24:28.472Z,2.40
2023-04-02T21:26:59.201Z,2.55
2023-04-02T21:29:29.990Z,2.35
2023-04-02T21:32:05.517Z,1.85
2023-04-02T21:34:42.077Z,2.47
2023-04-02T21:37:12.763Z,2.22
2023-04-02T21:39:45.198Z,3.20
2023-04-02T21:42:17.038Z,2.83
2023-04-02T21:44:47.819Z,2.80
2023-04-02T21:47:18.305Z,3.13
2023-04-02T21:49:49.151Z,2.60
2023-04-02T21:52:19.933Z,3.25
2023-04-02T21:54:52.476Z,2.80
2023-04-02T21:57:22.915Z,2.30
2023-04-02T21:59:57.030Z,2.67
2023-04-02T22:02:27.932Z,3.53
2023-04-02T22:04:58.780Z,1.77
2023-04-02T22:07:29.385Z,2.85
2023-04-02T22:10:01.805Z,2.75
2023-04-02T22:12:32.688Z,2.20
2023-04-02T22:15:03.663Z,2.70
2023-04-02T22:17:34.217Z,2.72
2023-04-02T22:20:05.849Z,2.40
2023-04-02T22:22:36.293Z,3.17
2023-04-02T22:25:10.481Z,2.05
2023-04-02T22:27:41.016Z,2.67
2023-04-02T22:30:12.563Z,2.53
2023-04-02T22:32:44.636Z,2.30
2023-04-02T22:35:17.337Z,2.10
2023-04-02T22:37:47.889Z,2.95
2023-04-02T22:40:20.310Z,2.42
2023-04-02T22:42:50.908Z,2.63
2023-04-02T22:45:21.717Z,1.98
2023-04-02T22:47:52.279Z,2.05
2023-04-02T22:50:23.157Z,2.85
2023-04-02T22:52:53.730Z,2.60
2023-04-02T22:55:26.751Z,2.92
2023-04-02T22:58:15.868Z,2.88
2023-04-02T23:01:08.472Z,3.15
2023-04-02T23:03:39.459Z,2.92
2023-04-02T23:06:13.554Z,2.78
2023-04-02T23:08:44.349Z,3.35
2023-04-02T23:11:19.473Z,2.45
2023-04-02T23:13:52.522Z,2.60
2023-04-02T23:16:23.563Z,2.40
2023-04-02T23:19:12.357Z,3.28
2023-04-02T23:21:43.159Z,2.97
2023-04-02T23:24:13.941Z,2.88
2023-04-02T23:26:46.233Z,2.72
2023-04-02T23:29:16.642Z,2.55
2023-04-02T23:31:47.595Z,2.85
2023-04-02T23:34:18.310Z,2.33
2023-04-02T23:36:49.214Z,2.33
2023-04-02T23:39:20.433Z,2.03
2023-04-02T23:41:52.715Z,2.00
2023-04-02T23:44:23.077Z,2.65
2023-04-02T23:46:54.156Z,2.63
2023-04-02T23:49:24.453Z,2.55
2023-04-02T23:51:55.471Z,2.40
2023-04-02T23:54:25.985Z,2.70
2023-04-02T23:56:58.083Z,2.38
2023-04-02T23:59:28.720Z,2.33
